sensor_id;sensor_type;location;lat;lon;timestamp;P1;durP1;ratioP1;P2;durP2;ratioP2
1382;SDS011;685;47.196;11.880;2022-11-23T00:01:36;6.50;;;5.07;;
1382;SDS011;685;47.196;11.880;2022-11-23T00:04:04;6.77;;;4.07;;
1382;SDS011;685;47.196;11.880;2022-11-23T00:06:33;8.47;;;4.17;;
1382;SDS011;685;47.196;11.880;2022-11-23T00:09:00;12.20;;;5.43;;
1382;SDS011;685;47.196;11.880;2022-11-23T00:11:27;8.57;;;5.63;;
1382;SDS011;685;47.196;11.880;2022-11-23T00:13:54;7.60;;;5.40;;
1382;SDS011;685;47.196;11.880;2022-11-23T00:16:24;8.70;;;6.17;;
1382;SDS011;685;47.196;11.880;2022-11-23T00:18:52;6.33;;;5.30;;
1382;SDS011;685;47.196;11.880;2022-11-23T00:21:19;8.53;;;6.10;;
1382;SDS011;685;47.196;11.880;2022-11-23T00:23:47;5.37;;;4.77;;
1382;SDS011;685;47.196;11.880;2022-11-23T00:26:14;6.30;;;4.10;;
1382;SDS011;685;47.196;11.880;2022-11-23T00:28:42;6.40;;;4.03;;
1382;SDS011;685;47.196;11.880;2022-11-23T00:31:10;4.80;;;4.30;;
1382;SDS011;685;47.196;11.880;2022-11-23T00:33:40;6.67;;;4.13;;
1382;SDS011;685;47.196;11.880;2022-11-23T00:36:09;5.77;;;4.80;;
1382;SDS011;685;47.196;11.880;2022-11-23T00:38:37;6.63;;;4.50;;
1382;SDS011;685;47.196;11.880;2022-11-23T00:41:06;4.37;;;3.70;;
1382;SDS011;685;47.196;11.880;2022-11-23T00:43:34;4.13;;;3.60;;
1382;SDS011;685;47.196;11.880;2022-11-23T00:46:02;4.90;;;3.63;;
1382;SDS011;685;47.196;11.880;2022-11-23T00:48:30;6.07;;;4.60;;
1382;SDS011;685;47.196;11.880;2022-11-23T00:50:59;4.80;;;3.77;;
1382;SDS011;685;47.196;11.880;2022-11-23T00:53:27;4.37;;;3.47;;
1382;SDS011;685;47.196;11.880;2022-11-23T00:55:54;3.87;;;3.40;;
1382;SDS011;685;47.196;11.880;2022-11-23T00:58:22;4.00;;;3.50;;
1382;SDS011;685;47.196;11.880;2022-11-23T01:00:54;5.10;;;3.43;;
1382;SDS011;685;47.196;11.880;2022-11-23T01:03:26;3.60;;;3.03;;
1382;SDS011;685;47.196;11.880;2022-11-23T01:05:54;5.87;;;2.60;;
1382;SDS011;685;47.196;11.880;2022-11-23T01:08:22;3.03;;;2.70;;
1382;SDS011;685;47.196;11.880;2022-11-23T01:10:49;3.10;;;2.80;;
1382;SDS011;685;47.196;11.880;2022-11-23T01:13:16;3.90;;;3.60;;
1382;SDS011;685;47.196;11.880;2022-11-23T01:15:47;5.53;;;3.87;;
1382;SDS011;685;47.196;11.880;2022-11-23T01:18:15;5.60;;;3.83;;
1382;SDS011;685;47.196;11.880;2022-11-23T01:20:42;3.83;;;3.37;;
1382;SDS011;685;47.196;11.880;2022-11-23T01:23:08;4.07;;;3.37;;
1382;SDS011;685;47.196;11.880;2022-11-23T01:25:37;5.27;;;4.20;;
1382;SDS011;685;47.196;11.880;2022-11-23T01:28:03;3.60;;;3.30;;
1382;SDS011;685;47.196;11.880;2022-11-23T01:30:31;4.93;;;2.23;;
1382;SDS011;685;47.196;11.880;2022-11-23T01:32:58;4.43;;;2.20;;
1382;SDS011;685;47.196;11.880;2022-11-23T01:35:25;2.63;;;2.40;;
1382;SDS011;685;47.196;11.880;2022-11-23T01:37:53;4.27;;;2.57;;
1382;SDS011;685;47.196;11.880;2022-11-23T01:40:20;4.93;;;2.70;;
1382;SDS011;685;47.196;11.880;2022-11-23T01:42:51;2.33;;;2.13;;
1382;SDS011;685;47.196;11.880;2022-11-23T01:48:05;8.17;;;5.37;;
1382;SDS011;685;47.196;11.880;2022-11-23T01:50:36;5.03;;;4.50;;
1382;SDS011;685;47.196;11.880;2022-11-23T01:53:04;5.17;;;3.57;;
1382;SDS011;685;47.196;11.880;2022-11-23T01:55:31;4.00;;;3.37;;
1382;SDS011;685;47.196;11.880;2022-11-23T01:58:00;4.30;;;3.90;;
1382;SDS011;685;47.196;11.880;2022-11-23T02:00:29;4.43;;;3.47;;
1382;SDS011;685;47.196;11.880;2022-11-23T02:02:57;7.43;;;3.97;;
1382;SDS011;685;47.196;11.880;2022-11-23T02:05:27;5.03;;;3.17;;
1382;SDS011;685;47.196;11.880;2022-11-23T02:07:57;3.40;;;3.10;;
1382;SDS011;685;47.196;11.880;2022-11-23T02:10:26;6.60;;;3.63;;
1382;SDS011;685;47.196;11.880;2022-11-23T02:12:55;3.30;;;2.93;;
1382;SDS011;685;47.196;11.880;2022-11-23T02:15:26;3.77;;;2.97;;
1382;SDS011;685;47.196;11.880;2022-11-23T02:17:53;3.83;;;2.50;;
1382;SDS011;685;47.196;11.880;2022-11-23T02:20:21;3.97;;;2.80;;
1382;SDS011;685;47.196;11.880;2022-11-23T02:22:49;2.57;;;2.30;;
1382;SDS011;685;47.196;11.880;2022-11-23T02:25:29;3.67;;;3.20;;
1382;SDS011;685;47.196;11.880;2022-11-23T02:28:03;2.67;;;2.10;;
1382;SDS011;685;47.196;11.880;2022-11-23T02:30:31;3.00;;;2.27;;
1382;SDS011;685;47.196;11.880;2022-11-23T02:33:02;2.50;;;2.30;;
1382;SDS011;685;47.196;11.880;2022-11-23T02:35:30;3.97;;;2.57;;
1382;SDS011;685;47.196;11.880;2022-11-23T02:37:57;3.87;;;3.40;;
1382;SDS011;685;47.196;11.880;2022-11-23T02:40:26;6.40;;;4.10;;
1382;SDS011;685;47.196;11.880;2022-11-23T02:42:55;6.20;;;4.50;;
1382;SDS011;685;47.196;11.880;2022-11-23T02:45:29;6.13;;;5.20;;
1382;SDS011;685;47.196;11.880;2022-11-23T02:47:59;7.67;;;5.60;;
1382;SDS011;685;47.196;11.880;2022-11-23T02:50:27;6.07;;;4.63;;
1382;SDS011;685;47.196;11.880;2022-11-23T02:52:54;6.60;;;4.20;;
1382;SDS011;685;47.196;11.880;2022-11-23T02:55:20;6.80;;;4.83;;
1382;SDS011;685;47.196;11.880;2022-11-23T02:57:47;5.80;;;4.30;;
1382;SDS011;685;47.196;11.880;2022-11-23T03:00:16;8.30;;;5.50;;
1382;SDS011;685;47.196;11.880;2022-11-23T03:02:44;6.97;;;5.43;;
1382;SDS011;685;47.196;11.880;2022-11-23T03:05:11;8.63;;;5.40;;
1382;SDS011;685;47.196;11.880;2022-11-23T03:07:38;6.30;;;5.10;;
1382;SDS011;685;47.196;11.880;2022-11-23T03:10:05;4.00;;;3.30;;
1382;SDS011;685;47.196;11.880;2022-11-23T03:12:33;3.67;;;2.80;;
1382;SDS011;685;47.196;11.880;2022-11-23T03:15:00;4.27;;;2.63;;
1382;SDS011;685;47.196;11.880;2022-11-23T03:17:26;2.00;;;1.80;;
1382;SDS011;685;47.196;11.880;2022-11-23T03:19:55;4.00;;;3.47;;
1382;SDS011;685;47.196;11.880;2022-11-23T03:22:21;3.87;;;2.90;;
1382;SDS011;685;47.196;11.880;2022-11-23T03:24:48;3.87;;;3.50;;
1382;SDS011;685;47.196;11.880;2022-11-23T03:27:15;5.57;;;4.60;;
1382;SDS011;685;47.196;11.880;2022-11-23T03:29:43;5.20;;;4.20;;
1382;SDS011;685;47.196;11.880;2022-11-23T03:32:10;5.53;;;3.50;;
1382;SDS011;685;47.196;11.880;2022-11-23T03:34:36;5.13;;;4.13;;
1382;SDS011;685;47.196;11.880;2022-11-23T03:37:05;6.63;;;4.00;;
1382;SDS011;685;47.196;11.880;2022-11-23T03:39:31;5.43;;;4.33;;
1382;SDS011;685;47.196;11.880;2022-11-23T03:41:58;6.60;;;4.53;;
1382;SDS011;685;47.196;11.880;2022-11-23T03:44:25;4.33;;;3.70;;
1382;SDS011;685;47.196;11.880;2022-11-23T03:46:52;4.50;;;3.63;;
1382;SDS011;685;47.196;11.880;2022-11-23T03:49:19;5.10;;;3.57;;
1382;SDS011;685;47.196;11.880;2022-11-23T03:51:46;4.43;;;2.77;;
1382;SDS011;685;47.196;11.880;2022-11-23T03:54:14;2.70;;;2.50;;
1382;SDS011;685;47.196;11.880;2022-11-23T03:56:41;8.90;;;5.80;;
1382;SDS011;685;47.196;11.880;2022-11-23T03:59:08;6.57;;;5.13;;
1382;SDS011;685;47.196;11.880;2022-11-23T04:01:35;7.30;;;5.10;;
1382;SDS011;685;47.196;11.880;2022-11-23T04:04:02;5.77;;;5.20;;
1382;SDS011;685;47.196;11.880;2022-11-23T04:06:29;6.03;;;4.00;;
1382;SDS011;685;47.196;11.880;2022-11-23T04:08:56;8.20;;;7.17;;
1382;SDS011;685;47.196;11.880;2022-11-23T04:11:24;6.27;;;4.50;;
1382;SDS011;685;47.196;11.880;2022-11-23T04:13:51;6.47;;;5.13;;
1382;SDS011;685;47.196;11.880;2022-11-23T04:16:17;5.37;;;4.60;;
1382;SDS011;685;47.196;11.880;2022-11-23T04:18:44;6.67;;;6.00;;
1382;SDS011;685;47.196;11.880;2022-11-23T04:21:11;9.20;;;6.30;;
1382;SDS011;685;47.196;11.880;2022-11-23T04:23:38;7.93;;;6.30;;
1382;SDS011;685;47.196;11.880;2022-11-23T04:26:05;10.27;;;7.87;;
1382;SDS011;685;47.196;11.880;2022-11-23T04:28:33;9.00;;;6.60;;
1382;SDS011;685;47.196;11.880;2022-11-23T04:31:00;9.70;;;6.30;;
1382;SDS011;685;47.196;11.880;2022-11-23T04:33:26;7.93;;;7.10;;
1382;SDS011;685;47.196;11.880;2022-11-23T04:35:55;5.70;;;5.20;;
1382;SDS011;685;47.196;11.880;2022-11-23T04:38:22;7.83;;;6.70;;
1382;SDS011;685;47.196;11.880;2022-11-23T04:40:49;7.37;;;6.60;;
1382;SDS011;685;47.196;11.880;2022-11-23T04:43:16;8.80;;;5.90;;
1382;SDS011;685;47.196;11.880;2022-11-23T04:45:44;9.30;;;6.00;;
1382;SDS011;685;47.196;11.880;2022-11-23T04:48:11;6.93;;;4.73;;
1382;SDS011;685;47.196;11.880;2022-11-23T04:50:38;6.03;;;4.23;;
1382;SDS011;685;47.196;11.880;2022-11-23T04:53:06;5.63;;;4.73;;
1382;SDS011;685;47.196;11.880;2022-11-23T04:55:33;5.13;;;4.30;;
1382;SDS011;685;47.196;11.880;2022-11-23T04:57:59;7.77;;;5.43;;
1382;SDS011;685;47.196;11.880;2022-11-23T05:00:26;5.07;;;4.57;;
1382;SDS011;685;47.196;11.880;2022-11-23T05:02:57;3.03;;;2.73;;
1382;SDS011;685;47.196;11.880;2022-11-23T05:05:24;4.10;;;3.60;;
1382;SDS011;685;47.196;11.880;2022-11-23T05:07:52;6.03;;;4.00;;
1382;SDS011;685;47.196;11.880;2022-11-23T05:10:18;7.10;;;5.37;;
1382;SDS011;685;47.196;11.880;2022-11-23T05:12:45;5.37;;;4.60;;
1382;SDS011;685;47.196;11.880;2022-11-23T05:15:12;6.60;;;4.50;;
1382;SDS011;685;47.196;11.880;2022-11-23T05:17:39;6.40;;;4.63;;
1382;SDS011;685;47.196;11.880;2022-11-23T05:20:08;6.87;;;5.30;;
1382;SDS011;685;47.196;11.880;2022-11-23T05:22:36;8.67;;;5.50;;
1382;SDS011;685;47.196;11.880;2022-11-23T05:25:03;5.63;;;4.97;;
1382;SDS011;685;47.196;11.880;2022-11-23T05:27:30;6.37;;;4.50;;
1382;SDS011;685;47.196;11.880;2022-11-23T05:29:57;10.20;;;7.20;;
1382;SDS011;685;47.196;11.880;2022-11-23T05:32:24;7.90;;;5.47;;
1382;SDS011;685;47.196;11.880;2022-11-23T05:34:51;11.20;;;7.87;;
1382;SDS011;685;47.196;11.880;2022-11-23T05:37:19;15.40;;;8.30;;
1382;SDS011;685;47.196;11.880;2022-11-23T05:39:46;7.87;;;6.03;;
1382;SDS011;685;47.196;11.880;2022-11-23T05:42:13;12.77;;;7.00;;
1382;SDS011;685;47.196;11.880;2022-11-23T05:44:40;8.03;;;6.07;;
1382;SDS011;685;47.196;11.880;2022-11-23T05:47:07;7.20;;;6.03;;
1382;SDS011;685;47.196;11.880;2022-11-23T05:49:34;9.10;;;6.43;;
1382;SDS011;685;47.196;11.880;2022-11-23T05:52:00;8.83;;;6.23;;
1382;SDS011;685;47.196;11.880;2022-11-23T05:54:29;7.70;;;6.23;;
1382;SDS011;685;47.196;11.880;2022-11-23T05:56:56;7.20;;;5.60;;
1382;SDS011;685;47.196;11.880;2022-11-23T05:59:23;6.20;;;5.47;;
1382;SDS011;685;47.196;11.880;2022-11-23T06:01:49;6.67;;;5.40;;
1382;SDS011;685;47.196;11.880;2022-11-23T06:04:16;8.27;;;5.60;;
1382;SDS011;685;47.196;11.880;2022-11-23T06:06:43;6.53;;;5.90;;
1382;SDS011;685;47.196;11.880;2022-11-23T06:09:10;6.30;;;4.70;;
1382;SDS011;685;47.196;11.880;2022-11-23T06:11:38;7.83;;;5.97;;
1382;SDS011;685;47.196;11.880;2022-11-23T06:14:05;9.33;;;8.53;;
1382;SDS011;685;47.196;11.880;2022-11-23T06:16:32;7.27;;;6.30;;
1382;SDS011;685;47.196;11.880;2022-11-23T06:18:58;9.07;;;7.10;;
1382;SDS011;685;47.196;11.880;2022-11-23T06:21:25;9.03;;;7.00;;
1382;SDS011;685;47.196;11.880;2022-11-23T06:23:52;7.97;;;5.63;;
1382;SDS011;685;47.196;11.880;2022-11-23T06:26:19;7.10;;;6.40;;
1382;SDS011;685;47.196;11.880;2022-11-23T06:28:47;14.07;;;9.97;;
1382;SDS011;685;47.196;11.880;2022-11-23T06:31:14;9.97;;;8.97;;
1382;SDS011;685;47.196;11.880;2022-11-23T06:33:41;15.27;;;11.40;;
1382;SDS011;685;47.196;11.880;2022-11-23T06:36:08;14.93;;;10.60;;
1382;SDS011;685;47.196;11.880;2022-11-23T06:38:36;11.27;;;8.30;;
1382;SDS011;685;47.196;11.880;2022-11-23T06:41:03;10.50;;;8.07;;
1382;SDS011;685;47.196;11.880;2022-11-23T06:43:30;10.97;;;9.40;;
1382;SDS011;685;47.196;11.880;2022-11-23T06:46:01;11.47;;;9.80;;
1382;SDS011;685;47.196;11.880;2022-11-23T06:48:29;11.57;;;10.37;;
1382;SDS011;685;47.196;11.880;2022-11-23T06:50:56;11.57;;;10.37;;
1382;SDS011;685;47.196;11.880;2022-11-23T06:53:23;11.00;;;9.90;;
1382;SDS011;685;47.196;11.880;2022-11-23T06:55:50;10.47;;;8.50;;
1382;SDS011;685;47.196;11.880;2022-11-23T06:58:17;11.60;;;10.20;;
1382;SDS011;685;47.196;11.880;2022-11-23T07:00:44;12.30;;;10.07;;
1382;SDS011;685;47.196;11.880;2022-11-23T07:03:15;12.17;;;10.87;;
1382;SDS011;685;47.196;11.880;2022-11-23T07:05:45;12.80;;;11.30;;
1382;SDS011;685;47.196;11.880;2022-11-23T07:08:12;10.87;;;9.77;;
1382;SDS011;685;47.196;11.880;2022-11-23T07:10:39;17.20;;;11.40;;
1382;SDS011;685;47.196;11.880;2022-11-23T07:13:06;14.27;;;10.43;;
1382;SDS011;685;47.196;11.880;2022-11-23T07:15:34;14.07;;;10.73;;
1382;SDS011;685;47.196;11.880;2022-11-23T07:18:02;15.33;;;13.70;;
1382;SDS011;685;47.196;11.880;2022-11-23T07:20:31;17.93;;;13.90;;
1382;SDS011;685;47.196;11.880;2022-11-23T07:22:58;15.33;;;13.17;;
1382;SDS011;685;47.196;11.880;2022-11-23T07:25:26;18.77;;;12.60;;
1382;SDS011;685;47.196;11.880;2022-11-23T07:27:54;14.67;;;12.80;;
1382;SDS011;685;47.196;11.880;2022-11-23T07:30:21;18.50;;;13.73;;
1382;SDS011;685;47.196;11.880;2022-11-23T07:32:48;20.43;;;14.60;;
1382;SDS011;685;47.196;11.880;2022-11-23T07:35:16;17.03;;;13.30;;
1382;SDS011;685;47.196;11.880;2022-11-23T07:37:45;16.50;;;13.30;;
1382;SDS011;685;47.196;11.880;2022-11-23T07:40:12;19.13;;;13.60;;
1382;SDS011;685;47.196;11.880;2022-11-23T07:42:39;17.13;;;14.27;;
1382;SDS011;685;47.196;11.880;2022-11-23T07:45:06;21.50;;;15.97;;
1382;SDS011;685;47.196;11.880;2022-11-23T07:47:34;17.90;;;12.73;;
1382;SDS011;685;47.196;11.880;2022-11-23T07:50:01;23.03;;;15.70;;
1382;SDS011;685;47.196;11.880;2022-11-23T07:52:28;19.03;;;15.53;;
1382;SDS011;685;47.196;11.880;2022-11-23T07:54:56;15.23;;;13.73;;
1382;SDS011;685;47.196;11.880;2022-11-23T07:57:24;16.47;;;13.90;;
1382;SDS011;685;47.196;11.880;2022-11-23T07:59:51;15.43;;;13.67;;
1382;SDS011;685;47.196;11.880;2022-11-23T08:02:18;20.67;;;13.27;;
1382;SDS011;685;47.196;11.880;2022-11-23T08:04:45;19.60;;;15.20;;
1382;SDS011;685;47.196;11.880;2022-11-23T08:07:12;20.13;;;14.67;;
1382;SDS011;685;47.196;11.880;2022-11-23T08:09:39;15.80;;;13.87;;
1382;SDS011;685;47.196;11.880;2022-11-23T08:12:08;23.20;;;15.03;;
1382;SDS011;685;47.196;11.880;2022-11-23T08:14:35;19.27;;;15.07;;
1382;SDS011;685;47.196;11.880;2022-11-23T08:17:01;22.70;;;14.97;;
1382;SDS011;685;47.196;11.880;2022-11-23T08:19:28;20.40;;;14.50;;
1382;SDS011;685;47.196;11.880;2022-11-23T08:21:55;14.83;;;12.87;;
1382;SDS011;685;47.196;11.880;2022-11-23T08:24:22;17.00;;;12.53;;
1382;SDS011;685;47.196;11.880;2022-11-23T08:26:49;16.37;;;12.10;;
1382;SDS011;685;47.196;11.880;2022-11-23T08:29:17;13.00;;;11.63;;
1382;SDS011;685;47.196;11.880;2022-11-23T08:31:44;12.03;;;9.83;;
1382;SDS011;685;47.196;11.880;2022-11-23T08:34:11;12.03;;;10.47;;
1382;SDS011;685;47.196;11.880;2022-11-23T08:36:38;16.40;;;14.10;;
1382;SDS011;685;47.196;11.880;2022-11-23T08:39:05;12.60;;;11.30;;
1382;SDS011;685;47.196;11.880;2022-11-23T08:41:35;14.83;;;12.37;;
1382;SDS011;685;47.196;11.880;2022-11-23T08:44:02;16.40;;;13.60;;
1382;SDS011;685;47.196;11.880;2022-11-23T08:46:30;15.83;;;13.97;;
1382;SDS011;685;47.196;11.880;2022-11-23T08:48:57;18.50;;;13.10;;
1382;SDS011;685;47.196;11.880;2022-11-23T08:51:23;14.00;;;11.30;;
1382;SDS011;685;47.196;11.880;2022-11-23T08:53:50;15.00;;;10.57;;
1382;SDS011;685;47.196;11.880;2022-11-23T08:56:17;15.50;;;10.50;;
1382;SDS011;685;47.196;11.880;2022-11-23T08:58:44;12.23;;;9.77;;
1382;SDS011;685;47.196;11.880;2022-11-23T09:01:11;10.37;;;7.50;;
1382;SDS011;685;47.196;11.880;2022-11-23T09:03:41;11.60;;;9.33;;
1382;SDS011;685;47.196;11.880;2022-11-23T09:06:08;15.30;;;10.07;;
1382;SDS011;685;47.196;11.880;2022-11-23T09:08:36;12.50;;;9.17;;
1382;SDS011;685;47.196;11.880;2022-11-23T09:11:04;12.90;;;10.07;;
1382;SDS011;685;47.196;11.880;2022-11-23T09:13:33;12.50;;;9.00;;
1382;SDS011;685;47.196;11.880;2022-11-23T09:16:01;12.07;;;8.93;;
1382;SDS011;685;47.196;11.880;2022-11-23T09:18:29;10.10;;;9.07;;
1382;SDS011;685;47.196;11.880;2022-11-23T09:21:00;13.00;;;9.27;;
1382;SDS011;685;47.196;11.880;2022-11-23T09:23:28;9.90;;;8.10;;
1382;SDS011;685;47.196;11.880;2022-11-23T09:25:56;9.27;;;8.33;;
1382;SDS011;685;47.196;11.880;2022-11-23T09:28:23;9.10;;;8.20;;
1382;SDS011;685;47.196;11.880;2022-11-23T09:30:51;10.07;;;8.20;;
1382;SDS011;685;47.196;11.880;2022-11-23T09:33:18;9.17;;;7.47;;
1382;SDS011;685;47.196;11.880;2022-11-23T09:35:45;10.70;;;7.80;;
1382;SDS011;685;47.196;11.880;2022-11-23T09:38:13;10.33;;;9.20;;
1382;SDS011;685;47.196;11.880;2022-11-23T09:40:41;10.63;;;8.80;;
1382;SDS011;685;47.196;11.880;2022-11-23T09:43:16;8.73;;;7.73;;
1382;SDS011;685;47.196;11.880;2022-11-23T09:46:01;13.40;;;10.03;;
1382;SDS011;685;47.196;11.880;2022-11-23T09:49:03;15.63;;;10.67;;
1382;SDS011;685;47.196;11.880;2022-11-23T09:51:36;12.97;;;11.53;;
1382;SDS011;685;47.196;11.880;2022-11-23T09:54:08;15.70;;;13.40;;
1382;SDS011;685;47.196;11.880;2022-11-23T09:56:41;15.27;;;13.50;;
1382;SDS011;685;47.196;11.880;2022-11-23T09:59:11;14.47;;;12.90;;
1382;SDS011;685;47.196;11.880;2022-11-23T10:01:45;15.07;;;13.13;;
1382;SDS011;685;47.196;11.880;2022-11-23T10:04:12;15.43;;;12.87;;
1382;SDS011;685;47.196;11.880;2022-11-23T10:06:43;17.07;;;13.53;;
1382;SDS011;685;47.196;11.880;2022-11-23T10:09:20;16.87;;;13.50;;
1382;SDS011;685;47.196;11.880;2022-11-23T10:12:00;16.47;;;14.60;;
1382;SDS011;685;47.196;11.880;2022-11-23T10:14:50;15.60;;;13.60;;
1382;SDS011;685;47.196;11.880;2022-11-23T10:17:25;14.73;;;12.47;;
1382;SDS011;685;47.196;11.880;2022-11-23T10:20:11;15.43;;;11.47;;
1382;SDS011;685;47.196;11.880;2022-11-23T10:22:46;14.43;;;11.60;;
1382;SDS011;685;47.196;11.880;2022-11-23T10:25:20;9.77;;;8.77;;
1382;SDS011;685;47.196;11.880;2022-11-23T10:27:49;12.97;;;9.90;;
1382;SDS011;685;47.196;11.880;2022-11-23T10:30:19;9.80;;;7.90;;
1382;SDS011;685;47.196;11.880;2022-11-23T10:32:48;7.83;;;6.97;;
1382;SDS011;685;47.196;11.880;2022-11-23T10:35:21;7.83;;;7.00;;
1382;SDS011;685;47.196;11.880;2022-11-23T10:37:56;13.00;;;9.97;;
1382;SDS011;685;47.196;11.880;2022-11-23T10:40:32;9.60;;;8.70;;
1382;SDS011;685;47.196;11.880;2022-11-23T10:43:00;8.37;;;7.43;;
1382;SDS011;685;47.196;11.880;2022-11-23T10:45:35;7.57;;;6.70;;
1382;SDS011;685;47.196;11.880;2022-11-23T10:48:02;10.50;;;7.93;;
1382;SDS011;685;47.196;11.880;2022-11-23T10:50:30;9.53;;;7.37;;
1382;SDS011;685;47.196;11.880;2022-11-23T10:53:18;6.13;;;5.20;;
1382;SDS011;685;47.196;11.880;2022-11-23T10:55:49;6.70;;;5.80;;
1382;SDS011;685;47.196;11.880;2022-11-23T10:58:25;6.60;;;5.80;;
1382;SDS011;685;47.196;11.880;2022-11-23T11:00:59;7.47;;;6.33;;
1382;SDS011;685;47.196;11.880;2022-11-23T11:03:28;6.27;;;4.97;;
1382;SDS011;685;47.196;11.880;2022-11-23T11:05:57;5.13;;;4.60;;
1382;SDS011;685;47.196;11.880;2022-11-23T11:08:25;5.47;;;4.80;;
1382;SDS011;685;47.196;11.880;2022-11-23T11:11:00;6.47;;;5.53;;
1382;SDS011;685;47.196;11.880;2022-11-23T11:13:29;6.67;;;5.50;;
1382;SDS011;685;47.196;11.880;2022-11-23T11:15:58;8.13;;;6.40;;
1382;SDS011;685;47.196;11.880;2022-11-23T11:18:27;7.23;;;6.53;;
1382;SDS011;685;47.196;11.880;2022-11-23T11:21:00;7.50;;;6.90;;
1382;SDS011;685;47.196;11.880;2022-11-23T11:23:30;6.47;;;5.87;;
1382;SDS011;685;47.196;11.880;2022-11-23T11:26:03;7.27;;;6.57;;
1382;SDS011;685;47.196;11.880;2022-11-23T11:28:34;5.97;;;5.37;;
1382;SDS011;685;47.196;11.880;2022-11-23T11:31:08;8.80;;;7.13;;
1382;SDS011;685;47.196;11.880;2022-11-23T11:33:49;13.37;;;8.80;;
1382;SDS011;685;47.196;11.880;2022-11-23T11:36:20;6.53;;;5.50;;
1382;SDS011;685;47.196;11.880;2022-11-23T11:38:49;6.40;;;5.40;;
1382;SDS011;685;47.196;11.880;2022-11-23T11:41:21;7.13;;;6.17;;
1382;SDS011;685;47.196;11.880;2022-11-23T11:43:50;5.17;;;4.67;;
1382;SDS011;685;47.196;11.880;2022-11-23T11:46:23;8.63;;;5.73;;
1382;SDS011;685;47.196;11.880;2022-11-23T11:48:56;5.63;;;5.00;;
1382;SDS011;685;47.196;11.880;2022-11-23T11:51:29;6.80;;;5.70;;
1382;SDS011;685;47.196;11.880;2022-11-23T11:54:00;5.37;;;4.70;;
1382;SDS011;685;47.196;11.880;2022-11-23T11:56:33;5.63;;;5.00;;
1382;SDS011;685;47.196;11.880;2022-11-23T11:59:05;4.77;;;4.37;;
1382;SDS011;685;47.196;11.880;2022-11-23T12:01:40;4.93;;;4.43;;
1382;SDS011;685;47.196;11.880;2022-11-23T12:04:11;5.60;;;4.93;;
1382;SDS011;685;47.196;11.880;2022-11-23T12:06:42;5.30;;;4.80;;
1382;SDS011;685;47.196;11.880;2022-11-23T12:09:17;6.50;;;5.33;;
1382;SDS011;685;47.196;11.880;2022-11-23T12:11:49;6.20;;;5.13;;
1382;SDS011;685;47.196;11.880;2022-11-23T12:14:16;6.10;;;5.50;;
1382;SDS011;685;47.196;11.880;2022-11-23T12:16:44;5.87;;;4.57;;
1382;SDS011;685;47.196;11.880;2022-11-23T12:19:22;6.67;;;5.40;;
1382;SDS011;685;47.196;11.880;2022-11-23T12:21:57;8.90;;;6.30;;
1382;SDS011;685;47.196;11.880;2022-11-23T12:24:49;8.03;;;5.20;;
1382;SDS011;685;47.196;11.880;2022-11-23T12:27:27;6.47;;;5.80;;
1382;SDS011;685;47.196;11.880;2022-11-23T12:30:08;5.70;;;5.03;;
1382;SDS011;685;47.196;11.880;2022-11-23T12:32:44;5.10;;;4.60;;
1382;SDS011;685;47.196;11.880;2022-11-23T12:35:30;6.47;;;5.87;;
1382;SDS011;685;47.196;11.880;2022-11-23T12:38:08;5.40;;;4.70;;
1382;SDS011;685;47.196;11.880;2022-11-23T12:40:53;4.90;;;4.50;;
1382;SDS011;685;47.196;11.880;2022-11-23T12:43:51;6.77;;;6.07;;
1382;SDS011;685;47.196;11.880;2022-11-23T12:46:30;6.10;;;5.50;;
1382;SDS011;685;47.196;11.880;2022-11-23T12:49:11;4.87;;;4.40;;
1382;SDS011;685;47.196;11.880;2022-11-23T12:51:48;6.90;;;5.90;;
1382;SDS011;685;47.196;11.880;2022-11-23T12:54:30;5.90;;;5.33;;
1382;SDS011;685;47.196;11.880;2022-11-23T12:57:10;9.80;;;6.67;;
1382;SDS011;685;47.196;11.880;2022-11-23T12:59:43;7.90;;;5.90;;
1382;SDS011;685;47.196;11.880;2022-11-23T13:05:20;9.10;;;8.20;;
1382;SDS011;685;47.196;11.880;2022-11-23T13:11:17;8.77;;;6.60;;
1382;SDS011;685;47.196;11.880;2022-11-23T13:13:55;6.03;;;4.90;;
1382;SDS011;685;47.196;11.880;2022-11-23T13:16:45;6.40;;;5.30;;
1382;SDS011;685;47.196;11.880;2022-11-23T13:19:40;5.77;;;5.17;;
1382;SDS011;685;47.196;11.880;2022-11-23T13:22:18;6.88;;;5.32;;
1382;SDS011;685;47.196;11.880;2022-11-23T13:24:58;6.53;;;5.30;;
1382;SDS011;685;47.196;11.880;2022-11-23T13:27:28;6.10;;;5.20;;
1382;SDS011;685;47.196;11.880;2022-11-23T13:30:08;25.60;;;8.30;;
1382;SDS011;685;47.196;11.880;2022-11-23T13:32:55;7.37;;;5.30;;
1382;SDS011;685;47.196;11.880;2022-11-23T13:38:35;5.40;;;4.90;;
1382;SDS011;685;47.196;11.880;2022-11-23T13:41:03;6.37;;;4.47;;
1382;SDS011;685;47.196;11.880;2022-11-23T13:44:18;4.90;;;4.50;;
1382;SDS011;685;47.196;11.880;2022-11-23T13:46:54;5.93;;;4.80;;
1382;SDS011;685;47.196;11.880;2022-11-23T13:49:36;4.80;;;4.40;;
1382;SDS011;685;47.196;11.880;2022-11-23T13:52:17;7.57;;;5.93;;
1382;SDS011;685;47.196;11.880;2022-11-23T13:54:54;6.10;;;5.33;;
1382;SDS011;685;47.196;11.880;2022-11-23T13:57:25;5.83;;;5.17;;
1382;SDS011;685;47.196;11.880;2022-11-23T13:59:52;5.77;;;4.20;;
1382;SDS011;685;47.196;11.880;2022-11-23T14:02:23;5.20;;;4.60;;
1382;SDS011;685;47.196;11.880;2022-11-23T14:04:53;5.80;;;5.30;;
1382;SDS011;685;47.196;11.880;2022-11-23T14:07:56;6.10;;;5.50;;
1382;SDS011;685;47.196;11.880;2022-11-23T14:10:28;6.87;;;5.87;;
1382;SDS011;685;47.196;11.880;2022-11-23T14:12:57;6.27;;;5.63;;
1382;SDS011;685;47.196;11.880;2022-11-23T14:15:28;7.47;;;5.37;;
1382;SDS011;685;47.196;11.880;2022-11-23T14:21:12;8.20;;;7.40;;
1382;SDS011;685;47.196;11.880;2022-11-23T14:23:57;6.83;;;5.80;;
1382;SDS011;685;47.196;11.880;2022-11-23T14:26:54;5.87;;;5.13;;
1382;SDS011;685;47.196;11.880;2022-11-23T14:32:11;17.63;;;12.60;;
1382;SDS011;685;47.196;11.880;2022-11-23T14:34:47;6.97;;;6.23;;
1382;SDS011;685;47.196;11.880;2022-11-23T14:37:24;6.20;;;5.70;;
1382;SDS011;685;47.196;11.880;2022-11-23T14:39:58;6.13;;;5.20;;
1382;SDS011;685;47.196;11.880;2022-11-23T14:42:36;8.03;;;6.23;;
1382;SDS011;685;47.196;11.880;2022-11-23T14:45:10;9.00;;;6.20;;
1382;SDS011;685;47.196;11.880;2022-11-23T14:47:40;5.80;;;5.20;;
1382;SDS011;685;47.196;11.880;2022-11-23T14:50:18;8.33;;;5.17;;
1382;SDS011;685;47.196;11.880;2022-11-23T14:52:48;5.80;;;5.30;;
1382;SDS011;685;47.196;11.880;2022-11-23T14:55:19;6.00;;;4.97;;
1382;SDS011;685;47.196;11.880;2022-11-23T14:57:48;6.60;;;5.70;;
1382;SDS011;685;47.196;11.880;2022-11-23T15:00:25;6.30;;;5.70;;
1382;SDS011;685;47.196;11.880;2022-11-23T15:02:56;7.03;;;5.17;;
1382;SDS011;685;47.196;11.880;2022-11-23T15:05:30;5.67;;;5.10;;
1382;SDS011;685;47.196;11.880;2022-11-23T15:08:00;6.50;;;5.77;;
1382;SDS011;685;47.196;11.880;2022-11-23T15:10:36;7.00;;;5.50;;
1382;SDS011;685;47.196;11.880;2022-11-23T15:13:17;5.93;;;5.33;;
1382;SDS011;685;47.196;11.880;2022-11-23T15:15:48;5.83;;;5.23;;
1382;SDS011;685;47.196;11.880;2022-11-23T15:18:27;5.23;;;4.83;;
1382;SDS011;685;47.196;11.880;2022-11-23T15:20:56;7.40;;;5.70;;
1382;SDS011;685;47.196;11.880;2022-11-23T15:23:28;6.30;;;4.70;;
1382;SDS011;685;47.196;11.880;2022-11-23T15:26:01;5.67;;;5.17;;
1382;SDS011;685;47.196;11.880;2022-11-23T15:28:31;8.13;;;7.43;;
1382;SDS011;685;47.196;11.880;2022-11-23T15:31:15;7.40;;;6.17;;
1382;SDS011;685;47.196;11.880;2022-11-23T15:33:52;6.50;;;5.90;;
1382;SDS011;685;47.196;11.880;2022-11-23T15:36:23;6.33;;;5.00;;
1382;SDS011;685;47.196;11.880;2022-11-23T15:38:52;5.40;;;4.20;;
1382;SDS011;685;47.196;11.880;2022-11-23T15:41:20;5.47;;;4.60;;
1382;SDS011;685;47.196;11.880;2022-11-23T15:43:52;5.30;;;4.17;;
1382;SDS011;685;47.196;11.880;2022-11-23T15:46:20;5.70;;;5.17;;
1382;SDS011;685;47.196;11.880;2022-11-23T15:48:50;4.63;;;4.23;;